createdAt,value
2018-07-08T00:00:36.688Z,2.93
2018-07-08T00:03:04.066Z,3.10
2018-07-08T00:05:31.703Z,3.87
2018-07-08T00:07:59.089Z,3.43
2018-07-08T00:10:26.397Z,3.30
2018-07-08T00:12:53.704Z,3.60
2018-07-08T00:15:21.071Z,2.90
2018-07-08T00:17:48.929Z,3.40
2018-07-08T00:20:16.324Z,3.20
2018-07-08T00:22:43.795Z,2.60
2018-07-08T00:25:11.225Z,3.10
2018-07-08T00:27:38.657Z,2.80
2018-07-08T00:30:06.216Z,2.73
2018-07-08T00:32:33.558Z,3.23
2018-07-08T00:35:00.900Z,3.17
2018-07-08T00:37:28.231Z,3.80
2018-07-08T00:39:55.723Z,2.37
2018-07-08T00:42:23.162Z,2.67
2018-07-08T00:44:50.593Z,2.97
2018-07-08T00:47:17.958Z,2.80
2018-07-08T00:49:45.310Z,2.80
2018-07-08T00:52:12.799Z,2.97
2018-07-08T00:54:40.301Z,2.47
2018-07-08T00:57:07.686Z,2.60
2018-07-08T00:59:35.110Z,3.50
2018-07-08T01:02:02.653Z,3.20
2018-07-08T01:04:30.035Z,2.77
2018-07-08T01:06:57.477Z,3.00
2018-07-08T01:09:25.310Z,3.27
2018-07-08T01:11:52.741Z,2.50
2018-07-08T01:14:20.443Z,3.37
2018-07-08T01:16:47.817Z,2.80
2018-07-08T01:19:15.275Z,2.97
2018-07-08T01:21:42.645Z,2.77
2018-07-08T01:24:10.092Z,2.70
2018-07-08T01:26:37.576Z,3.00
2018-07-08T01:29:04.964Z,2.83
2018-07-08T01:31:32.381Z,2.60
2018-07-08T01:33:59.838Z,2.97
2018-07-08T01:36:27.183Z,2.77
2018-07-08T01:38:54.568Z,2.80
2018-07-08T01:41:21.930Z,3.10
2018-07-08T01:43:49.554Z,2.93
2018-07-08T01:46:16.983Z,2.60
2018-07-08T01:48:44.337Z,3.40
2018-07-08T01:51:11.739Z,2.77
2018-07-08T01:53:39.409Z,3.57
2018-07-08T01:56:06.966Z,2.90
2018-07-08T01:58:34.331Z,3.57
2018-07-08T02:01:01.789Z,2.87
2018-07-08T02:03:29.119Z,3.60
2018-07-08T02:05:56.479Z,3.30
2018-07-08T02:08:23.931Z,3.10
2018-07-08T02:10:51.369Z,2.63
2018-07-08T02:13:18.697Z,3.30
2018-07-08T02:15:46.120Z,3.20
2018-07-08T02:18:13.472Z,2.50
2018-07-08T02:20:40.855Z,2.77
2018-07-08T02:23:08.182Z,3.10
2018-07-08T02:25:35.641Z,3.23
2018-07-08T02:28:03.094Z,3.00
2018-07-08T02:30:30.519Z,3.70
2018-07-08T02:32:57.926Z,3.13
2018-07-08T02:35:25.346Z,2.73
2018-07-08T02:37:52.742Z,2.77
2018-07-08T02:40:20.129Z,2.93
2018-07-08T02:42:47.832Z,3.20
2018-07-08T02:45:15.200Z,3.57
2018-07-08T02:47:42.506Z,4.20
2018-07-08T02:50:09.937Z,3.40
2018-07-08T02:52:37.307Z,3.10
2018-07-08T02:55:04.628Z,3.20
2018-07-08T02:57:31.968Z,3.30
2018-07-08T02:59:59.343Z,3.60
2018-07-08T03:02:26.661Z,4.03
2018-07-08T03:04:54.011Z,3.20
2018-07-08T03:07:21.300Z,4.00
2018-07-08T03:09:48.722Z,3.20
2018-07-08T03:12:16.107Z,3.47
2018-07-08T03:14:43.485Z,3.60
2018-07-08T03:17:10.863Z,2.60
2018-07-08T03:19:38.234Z,3.17
2018-07-08T03:22:05.714Z,3.33
2018-07-08T03:24:33.057Z,3.20
2018-07-08T03:27:00.390Z,3.40
2018-07-08T03:29:27.719Z,3.83
2018-07-08T03:31:55.176Z,2.73
2018-07-08T03:34:22.571Z,3.17
2018-07-08T03:36:50.508Z,3.60
2018-07-08T03:39:17.947Z,3.37
2018-07-08T03:41:45.303Z,2.90
2018-07-08T03:44:12.702Z,3.37
2018-07-08T03:46:40.070Z,2.90
2018-07-08T03:49:07.432Z,3.90
2018-07-08T03:51:34.809Z,3.07
2018-07-08T03:54:02.212Z,3.40
2018-07-08T03:56:29.606Z,2.90
2018-07-08T03:58:56.950Z,3.80
2018-07-08T04:01:24.376Z,3.50
2018-07-08T04:03:51.745Z,3.37
2018-07-08T04:06:19.108Z,3.40
2018-07-08T04:08:46.544Z,2.90
2018-07-08T04:11:13.924Z,3.47
2018-07-08T04:13:41.237Z,3.07
2018-07-08T04:16:09.738Z,3.20
2018-07-08T04:18:37.079Z,3.10
2018-07-08T04:21:04.539Z,3.60
2018-07-08T04:23:31.930Z,2.80
2018-07-08T04:25:59.298Z,3.03
2018-07-08T04:28:26.699Z,3.30
2018-07-08T04:30:54.096Z,2.83
2018-07-08T04:33:21.465Z,3.40
2018-07-08T04:35:48.895Z,2.87
2018-07-08T04:38:16.305Z,3.40
2018-07-08T04:40:43.748Z,2.80
2018-07-08T04:43:11.134Z,3.20
2018-07-08T04:45:38.434Z,2.90
2018-07-08T04:48:05.815Z,3.40
2018-07-08T04:50:33.255Z,4.13
2018-07-08T04:53:00.590Z,3.10
2018-07-08T04:55:27.930Z,3.07
2018-07-08T04:57:55.410Z,3.47
2018-07-08T05:00:22.947Z,3.80
2018-07-08T05:02:50.345Z,3.10
2018-07-08T05:05:17.749Z,2.93
2018-07-08T05:07:45.121Z,3.10
2018-07-08T05:10:12.546Z,2.70
2018-07-08T05:12:39.844Z,2.80
2018-07-08T05:15:07.168Z,3.20
2018-07-08T05:17:34.526Z,3.60
2018-07-08T05:20:01.950Z,2.80
2018-07-08T05:22:29.258Z,3.47
2018-07-08T05:24:56.564Z,3.30
2018-07-08T05:27:23.996Z,3.47
2018-07-08T05:29:51.456Z,3.67
2018-07-08T05:32:18.801Z,3.10
2018-07-08T05:34:46.180Z,3.00
2018-07-08T05:37:13.533Z,3.80
2018-07-08T05:39:40.968Z,3.33
2018-07-08T05:42:08.325Z,3.83
2018-07-08T05:44:35.624Z,3.37
2018-07-08T05:47:03.018Z,3.33
2018-07-08T05:49:30.399Z,3.30
2018-07-08T05:51:57.694Z,3.90
2018-07-08T05:54:25.253Z,3.03
2018-07-08T05:56:52.849Z,4.60
2018-07-08T05:59:20.241Z,4.60
2018-07-08T06:01:47.622Z,6.07
2018-07-08T06:04:14.945Z,4.50
2018-07-08T06:06:42.348Z,4.40
2018-07-08T06:09:09.727Z,4.53
2018-07-08T06:11:37.161Z,4.70
2018-07-08T06:14:04.572Z,4.43
2018-07-08T06:16:31.894Z,5.40
2018-07-08T06:18:59.319Z,4.30
2018-07-08T06:21:26.713Z,4.40
2018-07-08T06:23:54.081Z,4.73
2018-07-08T06:26:21.441Z,4.40
2018-07-08T06:28:48.834Z,4.77
2018-07-08T06:31:16.210Z,4.27
2018-07-08T06:33:43.542Z,4.40
2018-07-08T06:36:10.945Z,5.23
2018-07-08T06:38:38.341Z,5.10
2018-07-08T06:41:05.821Z,4.77
2018-07-08T06:43:33.208Z,4.33
2018-07-08T06:46:00.676Z,5.10
2018-07-08T06:48:28.029Z,4.63
2018-07-08T06:50:55.428Z,5.50
2018-07-08T06:53:22.825Z,4.10
2018-07-08T06:55:50.367Z,4.40
2018-07-08T06:58:17.820Z,5.67
2018-07-08T07:00:45.224Z,4.73
2018-07-08T07:03:12.551Z,5.63
2018-07-08T07:05:39.983Z,4.33
2018-07-08T07:08:07.387Z,5.80
2018-07-08T07:10:34.826Z,5.33
2018-07-08T07:13:02.216Z,5.30
2018-07-08T07:15:29.575Z,3.67
2018-07-08T07:17:56.958Z,4.63
2018-07-08T07:20:24.469Z,5.37
2018-07-08T07:22:52.076Z,5.43
2018-07-08T07:25:19.559Z,5.70
2018-07-08T07:27:47.077Z,5.73
2018-07-08T07:30:14.473Z,6.60
2018-07-08T07:32:42.025Z,5.30
2018-07-08T07:35:09.422Z,5.90
2018-07-08T07:37:36.828Z,5.60
2018-07-08T07:40:04.294Z,6.87
2018-07-08T07:42:32.014Z,5.93
2018-07-08T07:44:59.480Z,5.27
2018-07-08T07:47:26.849Z,6.40
2018-07-08T07:49:54.216Z,5.70
2018-07-08T07:52:21.587Z,5.77
2018-07-08T07:54:48.900Z,5.23
2018-07-08T07:57:16.277Z,6.00
2018-07-08T07:59:43.705Z,6.50
2018-07-08T08:02:11.083Z,6.13
2018-07-08T08:04:38.451Z,6.00
2018-07-08T08:07:05.926Z,5.87
2018-07-08T08:09:33.267Z,7.03
2018-07-08T08:12:00.679Z,6.00
2018-07-08T08:14:28.013Z,6.43
2018-07-08T08:16:55.420Z,5.97
2018-07-08T08:19:22.852Z,6.10
2018-07-08T08:21:50.286Z,7.13
2018-07-08T08:24:17.635Z,6.60
2018-07-08T08:26:44.990Z,6.57
2018-07-08T08:29:12.289Z,6.60
2018-07-08T08:31:39.663Z,6.40
2018-07-08T08:35:11.029Z,11.23
2018-07-08T08:37:41.432Z,6.97
2018-07-08T08:40:10.464Z,6.40
2018-07-08T08:42:37.969Z,7.33
2018-07-08T08:45:06.920Z,9.60
2018-07-08T08:47:34.433Z,9.87
2018-07-08T08:50:01.812Z,6.80
2018-07-08T08:52:29.279Z,8.03
2018-07-08T08:54:56.938Z,6.90
2018-07-08T08:57:24.218Z,6.77
2018-07-08T08:59:51.739Z,6.17
2018-07-08T09:02:19.126Z,6.37
2018-07-08T09:04:46.518Z,7.93
2018-07-08T09:07:14.993Z,6.97
2018-07-08T09:09:42.339Z,6.80
2018-07-08T09:12:10.542Z,7.30
2018-07-08T09:14:38.543Z,6.50
2018-07-08T09:17:06.032Z,6.87
2018-07-08T09:19:33.429Z,7.40
2018-07-08T09:22:00.860Z,9.50
2018-07-08T09:24:28.223Z,6.40
2018-07-08T09:26:55.749Z,6.10
2018-07-08T09:29:23.446Z,7.47
2018-07-08T09:31:50.869Z,8.63
2018-07-08T09:34:18.263Z,6.67
2018-07-08T09:36:45.671Z,7.80
2018-07-08T09:39:14.257Z,7.17
2018-07-08T09:41:42.290Z,6.00
2018-07-08T09:44:10.903Z,6.30
2018-07-08T09:46:38.726Z,5.77
2018-07-08T09:49:06.112Z,6.87
2018-07-08T09:51:33.539Z,6.10
2018-07-08T09:54:01.074Z,5.77
2018-07-08T09:56:28.412Z,5.73
2018-07-08T09:58:55.824Z,6.30
2018-07-08T10:01:23.168Z,6.13
2018-07-08T10:03:50.574Z,6.50
2018-07-08T10:06:17.913Z,6.53
2018-07-08T10:08:45.319Z,6.60
2018-07-08T10:11:12.710Z,6.37
2018-07-08T10:13:40.034Z,5.73
2018-07-08T10:16:07.427Z,6.67
2018-07-08T10:18:34.753Z,6.10
2018-07-08T10:21:02.209Z,7.30
2018-07-08T10:23:29.561Z,6.97
2018-07-08T10:25:56.957Z,6.60
2018-07-08T10:28:25.112Z,6.60
2018-07-08T10:30:52.989Z,6.27
2018-07-08T10:33:20.464Z,8.07
2018-07-08T10:35:56.036Z,7.10
2018-07-08T10:38:23.493Z,8.00
2018-07-08T10:40:51.870Z,8.30
2018-07-08T10:43:19.310Z,7.60
2018-07-08T10:45:47.091Z,6.57
2018-07-08T10:48:14.867Z,11.13
2018-07-08T10:50:42.224Z,7.60
2018-07-08T10:53:09.673Z,7.13
2018-07-08T10:55:37.139Z,8.03
2018-07-08T10:58:04.574Z,8.43
2018-07-08T11:00:31.983Z,8.57
2018-07-08T11:02:59.381Z,8.60
2018-07-08T11:05:26.754Z,7.80
2018-07-08T11:07:54.560Z,8.60
2018-07-08T11:10:21.973Z,9.10
2018-07-08T11:12:49.386Z,10.20
2018-07-08T11:15:16.792Z,12.50
2018-07-08T11:17:44.140Z,10.43
2018-07-08T11:20:11.493Z,9.10
2018-07-08T11:22:38.913Z,10.27
2018-07-08T11:25:06.350Z,8.83
2018-07-08T11:27:33.737Z,10.47
2018-07-08T11:30:01.110Z,10.87
2018-07-08T11:32:28.528Z,9.17
2018-07-08T11:34:55.897Z,9.23
2018-07-08T11:37:23.227Z,12.63
2018-07-08T11:39:50.578Z,11.60
2018-07-08T11:42:17.984Z,11.30
2018-07-08T11:44:45.375Z,10.20
2018-07-08T11:47:12.745Z,10.50
2018-07-08T11:49:40.272Z,10.63
2018-07-08T11:52:07.608Z,18.07
2018-07-08T11:54:35.075Z,10.50
2018-07-08T11:57:02.468Z,11.77
2018-07-08T11:59:29.824Z,10.50
2018-07-08T12:01:57.247Z,10.07
2018-07-08T12:04:24.575Z,10.20
2018-07-08T12:06:51.927Z,8.80
2018-07-08T12:09:19.251Z,9.83
2018-07-08T12:11:46.651Z,9.07
2018-07-08T12:14:14.075Z,8.70
2018-07-08T12:16:41.407Z,9.93
2018-07-08T12:19:08.844Z,7.70
2018-07-08T12:21:36.176Z,8.30
2018-07-08T12:24:03.555Z,7.70
2018-07-08T12:26:30.989Z,8.17
2018-07-08T12:28:58.428Z,8.07
2018-07-08T12:31:25.785Z,7.60
2018-07-08T12:33:53.152Z,7.10
2018-07-08T12:36:20.495Z,7.77
2018-07-08T12:38:47.928Z,9.70
2018-07-08T12:41:15.251Z,8.50
2018-07-08T12:43:42.656Z,7.83
2018-07-08T12:46:10.093Z,7.47
2018-07-08T12:48:37.391Z,7.60
2018-07-08T12:51:04.804Z,6.53
2018-07-08T12:53:32.141Z,6.77
2018-07-08T12:55:59.600Z,6.73
2018-07-08T12:58:27.682Z,6.93
2018-07-08T13:00:55.078Z,6.90
2018-07-08T13:03:22.803Z,6.80
2018-07-08T13:05:50.167Z,7.37
2018-07-08T13:08:17.577Z,7.00
2018-07-08T13:10:44.954Z,6.10
2018-07-08T13:13:12.262Z,6.97
2018-07-08T13:15:39.627Z,5.87
2018-07-08T13:18:07.013Z,6.20
2018-07-08T13:20:34.457Z,5.70
2018-07-08T13:23:01.811Z,5.97
2018-07-08T13:25:29.313Z,6.53
2018-07-08T13:27:56.679Z,10.37
2018-07-08T13:30:24.069Z,6.20
2018-07-08T13:32:51.404Z,6.50
2018-07-08T13:35:18.782Z,6.63
2018-07-08T13:37:46.098Z,7.83
2018-07-08T13:40:13.500Z,7.13
2018-07-08T13:42:40.851Z,7.10
2018-07-08T13:45:08.288Z,7.73
2018-07-08T13:47:35.626Z,7.00
2018-07-08T13:50:03.407Z,12.13
2018-07-08T13:52:30.761Z,6.10
2018-07-08T13:54:58.162Z,6.10
2018-07-08T13:57:25.671Z,5.17
2018-07-08T13:59:53.085Z,6.80
2018-07-08T14:02:20.503Z,6.13
2018-07-08T14:04:48.287Z,5.33
2018-07-08T14:07:15.726Z,5.80
2018-07-08T14:09:43.361Z,5.60
2018-07-08T14:12:10.783Z,5.70
2018-07-08T14:14:38.238Z,7.03
2018-07-08T14:17:05.660Z,6.37
2018-07-08T14:19:33.513Z,7.60
2018-07-08T14:22:00.888Z,5.83
2018-07-08T14:24:28.264Z,5.70
2018-07-08T14:26:55.588Z,6.90
2018-07-08T14:29:23.021Z,5.73
2018-07-08T14:31:50.476Z,5.70
2018-07-08T14:34:17.855Z,5.33
2018-07-08T14:36:45.287Z,5.90
2018-07-08T14:39:12.653Z,5.13
2018-07-08T14:41:40.036Z,5.80
2018-07-08T14:44:07.352Z,5.70
2018-07-08T14:46:34.799Z,5.60
2018-07-08T14:49:02.144Z,5.30
2018-07-08T14:51:29.659Z,5.40
2018-07-08T14:53:57.028Z,5.40
2018-07-08T14:56:24.665Z,6.10
2018-07-08T14:58:52.068Z,5.57
2018-07-08T15:01:19.680Z,5.33
2018-07-08T15:03:47.027Z,5.27
2018-07-08T15:06:14.424Z,5.30
2018-07-08T15:08:41.758Z,5.40
2018-07-08T15:11:09.082Z,5.27
2018-07-08T15:13:36.473Z,5.63
2018-07-08T15:16:03.870Z,5.60
2018-07-08T15:18:31.310Z,5.40
2018-07-08T15:20:58.750Z,5.83
2018-07-08T15:23:26.052Z,5.83
2018-07-08T15:25:53.418Z,6.03
2018-07-08T15:28:20.738Z,5.77
2018-07-08T15:30:48.169Z,5.30
2018-07-08T15:33:15.532Z,5.13
2018-07-08T15:35:43.368Z,6.17
2018-07-08T15:38:10.779Z,5.47
2018-07-08T15:40:38.300Z,6.00
2018-07-08T15:43:05.635Z,5.57
2018-07-08T15:45:33.036Z,4.90
2018-07-08T15:48:00.354Z,5.83
2018-07-08T15:50:27.788Z,5.73
2018-07-08T15:52:55.142Z,5.50
2018-07-08T15:55:23.021Z,5.33
2018-07-08T15:57:51.700Z,5.13
2018-07-08T16:00:19.158Z,5.70
2018-07-08T16:02:47.130Z,6.27
2018-07-08T16:05:14.481Z,5.60
2018-07-08T16:07:41.951Z,5.40
2018-07-08T16:10:09.342Z,6.17
2018-07-08T16:12:36.722Z,5.40
2018-07-08T16:15:04.581Z,6.03
2018-07-08T16:17:32.004Z,6.80
2018-07-08T16:19:59.721Z,7.60
2018-07-08T16:22:27.066Z,9.40
2018-07-08T16:24:54.392Z,6.07
2018-07-08T16:27:21.832Z,6.10
2018-07-08T16:29:49.266Z,8.43
2018-07-08T16:32:16.651Z,6.47
2018-07-08T16:34:44.044Z,6.90
2018-07-08T16:37:11.505Z,6.30
2018-07-08T16:39:38.982Z,6.73
2018-07-08T16:42:06.394Z,6.47
2018-07-08T16:44:34.085Z,7.13
2018-07-08T16:47:01.433Z,7.47
2018-07-08T16:49:28.788Z,6.90
2018-07-08T16:51:56.254Z,7.03
2018-07-08T16:54:23.613Z,7.00
2018-07-08T16:56:50.944Z,7.80
2018-07-08T16:59:18.347Z,6.30
2018-07-08T17:01:46.471Z,6.80
2018-07-08T17:04:13.907Z,6.03
2018-07-08T17:06:41.332Z,7.67
2018-07-08T17:09:09.716Z,6.70
2018-07-08T17:11:37.721Z,7.20
2018-07-08T17:14:05.084Z,7.30
2018-07-08T17:16:32.884Z,6.50
2018-07-08T17:19:00.261Z,8.20
2018-07-08T17:21:27.723Z,7.03
2018-07-08T17:23:55.094Z,7.03
2018-07-08T17:26:22.557Z,6.20
2018-07-08T17:28:49.919Z,5.50
2018-07-08T17:31:17.239Z,5.93
2018-07-08T17:33:44.556Z,5.20
2018-07-08T17:36:11.922Z,6.60
2018-07-08T17:38:39.925Z,5.70
2018-07-08T17:41:07.246Z,5.70
2018-07-08T17:43:34.684Z,6.50
2018-07-08T17:46:02.158Z,6.23
2018-07-08T17:48:29.532Z,6.30
2018-07-08T17:50:56.953Z,6.20
2018-07-08T17:53:24.312Z,6.30
2018-07-08T17:55:51.728Z,6.10
2018-07-08T17:58:19.453Z,6.70
2018-07-08T18:00:46.763Z,7.10
2018-07-08T18:03:14.677Z,6.40
2018-07-08T18:05:42.032Z,6.50
2018-07-08T18:08:09.368Z,6.83
2018-07-08T18:10:36.728Z,6.97
2018-07-08T18:13:04.083Z,6.27
2018-07-08T18:15:31.533Z,5.97
2018-07-08T18:17:58.897Z,6.33
2018-07-08T18:20:26.284Z,5.63
2018-07-08T18:22:53.669Z,5.20
2018-07-08T18:25:21.048Z,6.13
2018-07-08T18:27:48.449Z,6.40
2018-07-08T18:30:15.851Z,5.67
2018-07-08T18:32:43.264Z,5.87
2018-07-08T18:35:10.599Z,5.70
2018-07-08T18:37:37.926Z,5.80
2018-07-08T18:40:05.264Z,7.27
2018-07-08T18:42:32.646Z,9.03
2018-07-08T18:44:59.909Z,6.50
2018-07-08T18:47:27.203Z,6.30
2018-07-08T18:49:54.568Z,7.67
2018-07-08T18:52:22.272Z,7.83
2018-07-08T18:54:49.655Z,15.30
2018-07-08T18:57:17.035Z,7.23
2018-07-08T18:59:44.380Z,6.17
2018-07-08T19:02:11.668Z,5.90
2018-07-08T19:04:39.088Z,5.70
2018-07-08T19:07:06.474Z,6.83
2018-07-08T19:09:33.853Z,5.97
2018-07-08T19:12:01.234Z,7.37
2018-07-08T19:14:28.668Z,5.70
2018-07-08T19:16:56.015Z,5.73
2018-07-08T19:19:23.401Z,6.07
2018-07-08T19:21:50.772Z,6.37
2018-07-08T19:24:18.313Z,5.77
2018-07-08T19:26:45.665Z,5.60
2018-07-08T19:29:13.018Z,5.53
2018-07-08T19:31:40.356Z,6.87
2018-07-08T19:36:42.011Z,7.37
2018-07-08T19:39:10.244Z,8.17
2018-07-08T19:41:38.582Z,7.63
2018-07-08T19:44:06.054Z,7.73
2018-07-08T19:46:33.493Z,6.93
2018-07-08T19:49:02.236Z,6.80
2018-07-08T19:51:29.677Z,7.23
2018-07-08T19:53:58.212Z,8.47
2018-07-08T19:56:25.665Z,6.40
2018-07-08T19:58:53.062Z,6.33
2018-07-08T20:01:20.426Z,11.10
2018-07-08T20:03:47.797Z,6.73
2018-07-08T20:06:15.133Z,7.03
2018-07-08T20:08:42.573Z,7.90
2018-07-08T20:11:09.984Z,6.50
2018-07-08T20:13:37.783Z,7.23
2018-07-08T20:16:05.234Z,6.43
2018-07-08T20:18:32.734Z,6.63
2018-07-08T20:21:00.201Z,6.10
2018-07-08T20:23:27.541Z,6.07
2018-07-08T20:25:54.971Z,6.53
2018-07-08T20:28:22.445Z,9.50
2018-07-08T20:30:49.905Z,6.80
2018-07-08T20:33:17.273Z,5.90
2018-07-08T20:35:45.118Z,6.00
2018-07-08T20:38:12.466Z,5.67
2018-07-08T20:40:40.100Z,6.03
2018-07-08T20:43:07.473Z,6.87
2018-07-08T20:45:34.928Z,6.10
2018-07-08T20:48:02.289Z,5.80
2018-07-08T20:50:29.736Z,6.60
2018-07-08T20:52:57.348Z,6.03
2018-07-08T20:55:25.086Z,7.73
2018-07-08T20:57:52.542Z,7.30
2018-07-08T21:00:19.907Z,6.73
2018-07-08T21:02:47.259Z,6.27
2018-07-08T21:05:15.051Z,6.20
2018-07-08T21:07:42.487Z,5.97
2018-07-08T21:10:09.860Z,6.63
2018-07-08T21:12:37.219Z,6.20
2018-07-08T21:15:05.115Z,5.80
2018-07-08T21:17:32.567Z,5.73
2018-07-08T21:20:00.016Z,6.10
2018-07-08T21:22:27.784Z,6.90
2018-07-08T21:24:55.079Z,6.23
2018-07-08T21:27:22.519Z,6.60
2018-07-08T21:29:50.047Z,6.73
2018-07-08T21:32:17.432Z,6.10
2018-07-08T21:34:44.894Z,5.83
2018-07-08T21:37:12.365Z,6.20
2018-07-08T21:39:39.771Z,6.03
2018-07-08T21:42:07.197Z,6.20
2018-07-08T21:44:34.672Z,6.57
2018-07-08T21:47:02.127Z,7.50
2018-07-08T21:49:29.595Z,7.17
2018-07-08T21:51:57.052Z,7.27
2018-07-08T21:54:24.467Z,7.40
2018-07-08T21:56:51.880Z,6.77
2018-07-08T21:59:19.296Z,7.43
2018-07-08T22:01:53.009Z,7.13
2018-07-08T22:04:20.367Z,7.07
2018-07-08T22:06:47.701Z,7.00
2018-07-08T22:09:15.055Z,6.43
2018-07-08T22:11:42.568Z,6.70
2018-07-08T22:14:09.948Z,6.17
2018-07-08T22:16:37.394Z,6.80
2018-07-08T22:19:04.712Z,6.17
2018-07-08T22:21:32.044Z,6.10
2018-07-08T22:23:59.375Z,5.60
2018-07-08T22:26:26.746Z,5.60
2018-07-08T22:28:54.084Z,5.43
2018-07-08T22:31:21.394Z,5.80
2018-07-08T22:33:48.764Z,5.50
2018-07-08T22:36:16.056Z,6.17
2018-07-08T22:38:43.366Z,6.13
2018-07-08T22:41:10.753Z,6.23
2018-07-08T22:43:38.272Z,5.73
2018-07-08T22:46:05.546Z,6.00
2018-07-08T22:48:32.857Z,5.97
2018-07-08T22:51:00.168Z,5.93
2018-07-08T22:53:27.526Z,5.97
2018-07-08T22:55:54.890Z,5.20
2018-07-08T22:58:22.255Z,5.43
2018-07-08T23:00:55.474Z,6.00
2018-07-08T23:03:34.542Z,5.73
2018-07-08T23:06:01.896Z,5.60
2018-07-08T23:08:30.050Z,6.00
2018-07-08T23:10:57.313Z,5.67
2018-07-08T23:13:24.745Z,5.43
2018-07-08T23:15:52.047Z,5.57
2018-07-08T23:18:19.399Z,4.80
2018-07-08T23:20:47.034Z,5.50
2018-07-08T23:23:14.296Z,5.40
2018-07-08T23:25:41.581Z,4.97
2018-07-08T23:28:09.000Z,5.70
2018-07-08T23:30:36.347Z,5.43
2018-07-08T23:33:03.730Z,5.40
2018-07-08T23:35:31.041Z,5.17
2018-07-08T23:37:58.371Z,5.13
2018-07-08T23:40:25.666Z,5.20
2018-07-08T23:42:53.023Z,5.30
2018-07-08T23:45:20.725Z,5.30
2018-07-08T23:47:48.056Z,5.57
2018-07-08T23:50:15.391Z,5.80
2018-07-08T23:52:42.724Z,5.73
2018-07-08T23:55:10.043Z,5.97
2018-07-08T23:57:37.567Z,5.60
